sensor_id;sensor_type;location;lat;lon;timestamp;P1;durP1;ratioP1;P2;durP2;ratioP2
53497;SDS011;39382;47.168;16.008;2024-01-30T00:02:18;13.30;;;6.22;;
53497;SDS011;39382;47.168;16.008;2024-01-30T00:04:44;12.43;;;7.32;;
53497;SDS011;39382;47.168;16.008;2024-01-30T00:07:10;20.45;;;8.50;;
53497;SDS011;39382;47.168;16.008;2024-01-30T00:09:35;13.68;;;6.32;;
53497;SDS011;39382;47.168;16.008;2024-01-30T00:12:01;11.40;;;6.55;;
53497;SDS011;39382;47.168;16.008;2024-01-30T00:14:27;16.80;;;6.55;;
53497;SDS011;39382;47.168;16.008;2024-01-30T00:16:52;12.55;;;6.30;;
53497;SDS011;39382;47.168;16.008;2024-01-30T00:19:18;9.30;;;5.72;;
53497;SDS011;39382;47.168;16.008;2024-01-30T00:21:43;9.18;;;5.05;;
53497;SDS011;39382;47.168;16.008;2024-01-30T00:24:09;17.10;;;7.57;;
53497;SDS011;39382;47.168;16.008;2024-01-30T00:26:35;11.48;;;5.80;;
53497;SDS011;39382;47.168;16.008;2024-01-30T00:29:01;14.27;;;4.93;;
53497;SDS011;39382;47.168;16.008;2024-01-30T00:31:27;8.82;;;5.47;;
53497;SDS011;39382;47.168;16.008;2024-01-30T00:33:52;14.98;;;5.30;;
53497;SDS011;39382;47.168;16.008;2024-01-30T00:36:18;19.30;;;6.13;;
53497;SDS011;39382;47.168;16.008;2024-01-30T00:38:43;9.25;;;4.38;;
53497;SDS011;39382;47.168;16.008;2024-01-30T00:41:09;16.95;;;6.22;;
53497;SDS011;39382;47.168;16.008;2024-01-30T00:43:35;15.27;;;6.97;;
53497;SDS011;39382;47.168;16.008;2024-01-30T00:46:01;13.63;;;6.88;;
53497;SDS011;39382;47.168;16.008;2024-01-30T00:48:27;11.30;;;5.90;;
53497;SDS011;39382;47.168;16.008;2024-01-30T00:50:53;19.50;;;6.78;;
53497;SDS011;39382;47.168;16.008;2024-01-30T00:53:18;12.70;;;6.05;;
53497;SDS011;39382;47.168;16.008;2024-01-30T00:55:44;11.18;;;5.82;;
53497;SDS011;39382;47.168;16.008;2024-01-30T00:58:09;11.57;;;6.00;;
53497;SDS011;39382;47.168;16.008;2024-01-30T01:00:35;12.52;;;5.20;;
53497;SDS011;39382;47.168;16.008;2024-01-30T01:03:01;10.20;;;4.85;;
53497;SDS011;39382;47.168;16.008;2024-01-30T01:05:27;12.88;;;6.10;;
53497;SDS011;39382;47.168;16.008;2024-01-30T01:07:52;11.30;;;6.85;;
53497;SDS011;39382;47.168;16.008;2024-01-30T01:10:18;9.25;;;5.20;;
53497;SDS011;39382;47.168;16.008;2024-01-30T01:12:45;13.98;;;6.35;;
53497;SDS011;39382;47.168;16.008;2024-01-30T01:15:11;12.88;;;6.88;;
53497;SDS011;39382;47.168;16.008;2024-01-30T01:17:37;18.13;;;6.63;;
53497;SDS011;39382;47.168;16.008;2024-01-30T01:20:03;13.20;;;7.10;;
53497;SDS011;39382;47.168;16.008;2024-01-30T01:22:31;13.18;;;6.63;;
53497;SDS011;39382;47.168;16.008;2024-01-30T01:24:57;11.38;;;6.45;;
53497;SDS011;39382;47.168;16.008;2024-01-30T01:27:23;10.45;;;5.15;;
53497;SDS011;39382;47.168;16.008;2024-01-30T01:29:49;12.77;;;7.15;;
53497;SDS011;39382;47.168;16.008;2024-01-30T01:32:16;11.70;;;6.10;;
53497;SDS011;39382;47.168;16.008;2024-01-30T01:34:41;13.13;;;5.82;;
53497;SDS011;39382;47.168;16.008;2024-01-30T01:37:07;11.73;;;5.78;;
53497;SDS011;39382;47.168;16.008;2024-01-30T01:39:33;12.73;;;5.35;;
53497;SDS011;39382;47.168;16.008;2024-01-30T01:41:59;10.60;;;5.65;;
53497;SDS011;39382;47.168;16.008;2024-01-30T01:44:24;12.38;;;5.43;;
53497;SDS011;39382;47.168;16.008;2024-01-30T01:46:50;11.93;;;6.07;;
53497;SDS011;39382;47.168;16.008;2024-01-30T01:49:17;12.30;;;6.13;;
53497;SDS011;39382;47.168;16.008;2024-01-30T01:51:44;12.25;;;7.10;;
53497;SDS011;39382;47.168;16.008;2024-01-30T01:54:12;9.25;;;4.97;;
53497;SDS011;39382;47.168;16.008;2024-01-30T01:56:39;11.10;;;5.63;;
53497;SDS011;39382;47.168;16.008;2024-01-30T01:59:06;13.27;;;5.28;;
53497;SDS011;39382;47.168;16.008;2024-01-30T02:01:33;11.15;;;5.50;;
53497;SDS011;39382;47.168;16.008;2024-01-30T02:04:00;12.88;;;6.30;;
53497;SDS011;39382;47.168;16.008;2024-01-30T02:06:26;13.77;;;5.90;;
53497;SDS011;39382;47.168;16.008;2024-01-30T02:08:52;17.60;;;6.85;;
53497;SDS011;39382;47.168;16.008;2024-01-30T02:11:19;13.48;;;6.22;;
53497;SDS011;39382;47.168;16.008;2024-01-30T02:13:45;13.15;;;6.55;;
53497;SDS011;39382;47.168;16.008;2024-01-30T02:16:11;9.80;;;5.47;;
53497;SDS011;39382;47.168;16.008;2024-01-30T02:18:37;14.05;;;6.85;;
53497;SDS011;39382;47.168;16.008;2024-01-30T02:21:07;8.52;;;5.05;;
53497;SDS011;39382;47.168;16.008;2024-01-30T02:23:32;9.82;;;5.45;;
53497;SDS011;39382;47.168;16.008;2024-01-30T02:25:59;10.20;;;6.30;;
53497;SDS011;39382;47.168;16.008;2024-01-30T02:28:25;9.75;;;5.32;;
53497;SDS011;39382;47.168;16.008;2024-01-30T02:30:51;15.38;;;6.40;;
53497;SDS011;39382;47.168;16.008;2024-01-30T02:33:16;10.02;;;6.00;;
53497;SDS011;39382;47.168;16.008;2024-01-30T02:35:42;8.43;;;5.35;;
53497;SDS011;39382;47.168;16.008;2024-01-30T02:38:08;12.93;;;4.88;;
53497;SDS011;39382;47.168;16.008;2024-01-30T02:40:33;12.93;;;5.57;;
53497;SDS011;39382;47.168;16.008;2024-01-30T02:42:59;9.68;;;5.13;;
53497;SDS011;39382;47.168;16.008;2024-01-30T02:45:26;11.15;;;5.10;;
53497;SDS011;39382;47.168;16.008;2024-01-30T02:47:52;7.38;;;4.43;;
53497;SDS011;39382;47.168;16.008;2024-01-30T02:50:17;11.63;;;5.70;;
53497;SDS011;39382;47.168;16.008;2024-01-30T02:52:43;13.93;;;5.75;;
53497;SDS011;39382;47.168;16.008;2024-01-30T02:55:09;13.40;;;4.70;;
53497;SDS011;39382;47.168;16.008;2024-01-30T02:57:35;9.52;;;4.90;;
53497;SDS011;39382;47.168;16.008;2024-01-30T03:00:01;5.88;;;4.32;;
53497;SDS011;39382;47.168;16.008;2024-01-30T03:02:28;11.13;;;5.55;;
53497;SDS011;39382;47.168;16.008;2024-01-30T03:04:54;9.98;;;4.95;;
53497;SDS011;39382;47.168;16.008;2024-01-30T03:07:20;10.57;;;5.07;;
53497;SDS011;39382;47.168;16.008;2024-01-30T03:09:45;9.13;;;4.75;;
53497;SDS011;39382;47.168;16.008;2024-01-30T03:12:11;8.95;;;4.30;;
53497;SDS011;39382;47.168;16.008;2024-01-30T03:14:37;12.57;;;5.75;;
53497;SDS011;39382;47.168;16.008;2024-01-30T03:17:02;8.52;;;5.32;;
53497;SDS011;39382;47.168;16.008;2024-01-30T03:19:28;9.70;;;4.93;;
53497;SDS011;39382;47.168;16.008;2024-01-30T03:21:54;9.30;;;5.03;;
53497;SDS011;39382;47.168;16.008;2024-01-30T03:24:19;10.30;;;4.40;;
53497;SDS011;39382;47.168;16.008;2024-01-30T03:26:45;9.75;;;5.30;;
53497;SDS011;39382;47.168;16.008;2024-01-30T03:29:11;11.25;;;5.97;;
53497;SDS011;39382;47.168;16.008;2024-01-30T03:31:36;14.48;;;5.38;;
53497;SDS011;39382;47.168;16.008;2024-01-30T03:34:02;9.05;;;5.45;;
53497;SDS011;39382;47.168;16.008;2024-01-30T03:36:28;15.30;;;5.35;;
53497;SDS011;39382;47.168;16.008;2024-01-30T03:38:53;11.25;;;5.13;;
53497;SDS011;39382;47.168;16.008;2024-01-30T03:41:19;11.07;;;4.78;;
53497;SDS011;39382;47.168;16.008;2024-01-30T03:43:46;11.80;;;5.07;;
53497;SDS011;39382;47.168;16.008;2024-01-30T03:46:12;13.73;;;6.28;;
53497;SDS011;39382;47.168;16.008;2024-01-30T03:48:38;10.68;;;5.28;;
53497;SDS011;39382;47.168;16.008;2024-01-30T03:51:04;7.50;;;4.82;;
53497;SDS011;39382;47.168;16.008;2024-01-30T03:53:30;10.05;;;4.90;;
53497;SDS011;39382;47.168;16.008;2024-01-30T03:55:55;12.13;;;5.30;;
53497;SDS011;39382;47.168;16.008;2024-01-30T03:58:21;10.13;;;5.20;;
53497;SDS011;39382;47.168;16.008;2024-01-30T04:00:47;6.68;;;5.05;;
53497;SDS011;39382;47.168;16.008;2024-01-30T04:03:14;12.98;;;4.30;;
53497;SDS011;39382;47.168;16.008;2024-01-30T04:05:40;13.23;;;5.57;;
53497;SDS011;39382;47.168;16.008;2024-01-30T04:08:06;9.13;;;5.28;;
53497;SDS011;39382;47.168;16.008;2024-01-30T04:10:32;7.90;;;4.72;;
53497;SDS011;39382;47.168;16.008;2024-01-30T04:12:58;12.18;;;5.88;;
53497;SDS011;39382;47.168;16.008;2024-01-30T04:15:24;11.18;;;5.05;;
53497;SDS011;39382;47.168;16.008;2024-01-30T04:17:50;10.68;;;5.40;;
53497;SDS011;39382;47.168;16.008;2024-01-30T04:20:16;12.88;;;5.40;;
53497;SDS011;39382;47.168;16.008;2024-01-30T04:22:43;10.90;;;5.10;;
53497;SDS011;39382;47.168;16.008;2024-01-30T04:25:12;7.88;;;4.90;;
53497;SDS011;39382;47.168;16.008;2024-01-30T04:27:38;10.35;;;5.88;;
53497;SDS011;39382;47.168;16.008;2024-01-30T04:30:04;17.65;;;4.40;;
53497;SDS011;39382;47.168;16.008;2024-01-30T04:32:31;14.05;;;5.20;;
53497;SDS011;39382;47.168;16.008;2024-01-30T04:34:57;10.05;;;5.95;;
53497;SDS011;39382;47.168;16.008;2024-01-30T04:37:23;8.50;;;5.22;;
53497;SDS011;39382;47.168;16.008;2024-01-30T04:39:49;9.23;;;5.53;;
53497;SDS011;39382;47.168;16.008;2024-01-30T04:42:15;8.20;;;4.80;;
53497;SDS011;39382;47.168;16.008;2024-01-30T04:44:41;11.50;;;5.18;;
53497;SDS011;39382;47.168;16.008;2024-01-30T04:47:07;12.23;;;5.60;;
53497;SDS011;39382;47.168;16.008;2024-01-30T04:49:34;9.55;;;5.43;;
53497;SDS011;39382;47.168;16.008;2024-01-30T04:52:00;9.38;;;5.25;;
53497;SDS011;39382;47.168;16.008;2024-01-30T04:54:25;14.18;;;6.00;;
53497;SDS011;39382;47.168;16.008;2024-01-30T04:56:51;8.55;;;5.45;;
53497;SDS011;39382;47.168;16.008;2024-01-30T04:59:17;9.32;;;5.35;;
53497;SDS011;39382;47.168;16.008;2024-01-30T05:01:42;9.85;;;5.28;;
53497;SDS011;39382;47.168;16.008;2024-01-30T05:04:08;11.98;;;5.78;;
53497;SDS011;39382;47.168;16.008;2024-01-30T05:06:34;15.02;;;5.82;;
53497;SDS011;39382;47.168;16.008;2024-01-30T05:09:00;12.27;;;5.95;;
53497;SDS011;39382;47.168;16.008;2024-01-30T05:11:26;11.13;;;5.35;;
53497;SDS011;39382;47.168;16.008;2024-01-30T05:13:51;12.05;;;5.93;;
53497;SDS011;39382;47.168;16.008;2024-01-30T05:16:17;8.80;;;5.05;;
53497;SDS011;39382;47.168;16.008;2024-01-30T05:18:43;13.55;;;5.43;;
53497;SDS011;39382;47.168;16.008;2024-01-30T05:21:09;12.60;;;5.60;;
53497;SDS011;39382;47.168;16.008;2024-01-30T05:23:35;8.07;;;4.35;;
53497;SDS011;39382;47.168;16.008;2024-01-30T05:26:01;13.40;;;5.28;;
53497;SDS011;39382;47.168;16.008;2024-01-30T05:28:28;11.82;;;5.57;;
53497;SDS011;39382;47.168;16.008;2024-01-30T05:30:55;7.55;;;4.30;;
53497;SDS011;39382;47.168;16.008;2024-01-30T05:33:21;15.27;;;7.32;;
53497;SDS011;39382;47.168;16.008;2024-01-30T05:35:46;12.30;;;5.32;;
53497;SDS011;39382;47.168;16.008;2024-01-30T05:38:13;10.32;;;5.35;;
53497;SDS011;39382;47.168;16.008;2024-01-30T05:40:40;8.30;;;5.30;;
53497;SDS011;39382;47.168;16.008;2024-01-30T05:43:05;11.20;;;4.90;;
53497;SDS011;39382;47.168;16.008;2024-01-30T05:45:33;7.03;;;3.83;;
53497;SDS011;39382;47.168;16.008;2024-01-30T05:48:00;9.00;;;4.72;;
53497;SDS011;39382;47.168;16.008;2024-01-30T05:50:25;10.90;;;5.70;;
53497;SDS011;39382;47.168;16.008;2024-01-30T05:52:52;11.35;;;5.28;;
53497;SDS011;39382;47.168;16.008;2024-01-30T05:55:17;8.10;;;4.78;;
53497;SDS011;39382;47.168;16.008;2024-01-30T05:57:43;10.20;;;5.20;;
53497;SDS011;39382;47.168;16.008;2024-01-30T06:00:09;11.98;;;6.28;;
53497;SDS011;39382;47.168;16.008;2024-01-30T06:02:34;9.57;;;5.05;;
53497;SDS011;39382;47.168;16.008;2024-01-30T06:05:00;13.25;;;5.85;;
53497;SDS011;39382;47.168;16.008;2024-01-30T06:07:26;11.02;;;5.65;;
53497;SDS011;39382;47.168;16.008;2024-01-30T06:09:51;12.35;;;5.93;;
53497;SDS011;39382;47.168;16.008;2024-01-30T06:12:17;9.55;;;5.05;;
53497;SDS011;39382;47.168;16.008;2024-01-30T06:14:43;12.07;;;5.65;;
53497;SDS011;39382;47.168;16.008;2024-01-30T06:17:08;10.10;;;5.00;;
53497;SDS011;39382;47.168;16.008;2024-01-30T06:19:34;7.93;;;5.22;;
53497;SDS011;39382;47.168;16.008;2024-01-30T06:22:00;12.32;;;5.20;;
53497;SDS011;39382;47.168;16.008;2024-01-30T06:24:26;10.98;;;5.30;;
53497;SDS011;39382;47.168;16.008;2024-01-30T06:26:52;8.50;;;4.55;;
53497;SDS011;39382;47.168;16.008;2024-01-30T06:29:18;10.63;;;4.82;;
53497;SDS011;39382;47.168;16.008;2024-01-30T06:31:44;13.55;;;5.40;;
53497;SDS011;39382;47.168;16.008;2024-01-30T06:34:09;9.15;;;5.00;;
53497;SDS011;39382;47.168;16.008;2024-01-30T06:36:36;13.10;;;5.90;;
53497;SDS011;39382;47.168;16.008;2024-01-30T06:39:02;10.63;;;4.88;;
53497;SDS011;39382;47.168;16.008;2024-01-30T06:41:28;13.52;;;5.75;;
53497;SDS011;39382;47.168;16.008;2024-01-30T06:43:54;10.50;;;5.32;;
53497;SDS011;39382;47.168;16.008;2024-01-30T06:46:21;10.52;;;5.95;;
53497;SDS011;39382;47.168;16.008;2024-01-30T06:48:46;10.32;;;5.63;;
53497;SDS011;39382;47.168;16.008;2024-01-30T06:51:12;11.77;;;4.90;;
53497;SDS011;39382;47.168;16.008;2024-01-30T06:53:38;7.60;;;4.43;;
53497;SDS011;39382;47.168;16.008;2024-01-30T06:56:04;11.30;;;5.28;;
53497;SDS011;39382;47.168;16.008;2024-01-30T06:58:30;9.25;;;5.35;;
53497;SDS011;39382;47.168;16.008;2024-01-30T07:00:56;12.07;;;4.60;;
53497;SDS011;39382;47.168;16.008;2024-01-30T07:03:21;11.20;;;5.57;;
53497;SDS011;39382;47.168;16.008;2024-01-30T07:05:47;12.00;;;5.45;;
53497;SDS011;39382;47.168;16.008;2024-01-30T07:08:13;12.98;;;6.13;;
53497;SDS011;39382;47.168;16.008;2024-01-30T07:10:42;20.42;;;8.73;;
53497;SDS011;39382;47.168;16.008;2024-01-30T07:13:08;16.95;;;7.38;;
53497;SDS011;39382;47.168;16.008;2024-01-30T07:15:35;15.18;;;7.93;;
53497;SDS011;39382;47.168;16.008;2024-01-30T07:18:01;11.15;;;6.30;;
53497;SDS011;39382;47.168;16.008;2024-01-30T07:20:27;10.20;;;6.20;;
53497;SDS011;39382;47.168;16.008;2024-01-30T07:22:55;7.72;;;4.78;;
53497;SDS011;39382;47.168;16.008;2024-01-30T07:25:21;7.85;;;5.10;;
53497;SDS011;39382;47.168;16.008;2024-01-30T07:27:51;12.20;;;5.40;;
53497;SDS011;39382;47.168;16.008;2024-01-30T07:30:17;9.82;;;5.60;;
53497;SDS011;39382;47.168;16.008;2024-01-30T07:32:43;8.63;;;6.38;;
53497;SDS011;39382;47.168;16.008;2024-01-30T07:35:09;15.70;;;8.02;;
53497;SDS011;39382;47.168;16.008;2024-01-30T07:37:34;22.35;;;7.53;;
53497;SDS011;39382;47.168;16.008;2024-01-30T07:40:01;17.23;;;7.28;;
53497;SDS011;39382;47.168;16.008;2024-01-30T07:42:27;21.15;;;9.85;;
53497;SDS011;39382;47.168;16.008;2024-01-30T07:44:53;18.35;;;10.93;;
53497;SDS011;39382;47.168;16.008;2024-01-30T07:47:18;16.35;;;9.65;;
53497;SDS011;39382;47.168;16.008;2024-01-30T07:49:44;16.73;;;8.55;;
53497;SDS011;39382;47.168;16.008;2024-01-30T07:52:10;15.70;;;7.93;;
53497;SDS011;39382;47.168;16.008;2024-01-30T07:57:57;22.45;;;9.30;;
53497;SDS011;39382;47.168;16.008;2024-01-30T08:00:26;18.05;;;10.18;;
53497;SDS011;39382;47.168;16.008;2024-01-30T08:02:54;23.05;;;9.02;;
53497;SDS011;39382;47.168;16.008;2024-01-30T08:05:20;15.95;;;9.43;;
53497;SDS011;39382;47.168;16.008;2024-01-30T08:07:47;18.55;;;9.02;;
53497;SDS011;39382;47.168;16.008;2024-01-30T08:10:14;17.73;;;8.98;;
53497;SDS011;39382;47.168;16.008;2024-01-30T08:12:40;13.57;;;8.38;;
53497;SDS011;39382;47.168;16.008;2024-01-30T08:15:06;16.20;;;9.73;;
53497;SDS011;39382;47.168;16.008;2024-01-30T08:17:32;17.42;;;8.45;;
53497;SDS011;39382;47.168;16.008;2024-01-30T08:19:58;20.63;;;8.80;;
53497;SDS011;39382;47.168;16.008;2024-01-30T08:22:24;19.17;;;8.90;;
53497;SDS011;39382;47.168;16.008;2024-01-30T08:24:50;19.60;;;7.95;;
53497;SDS011;39382;47.168;16.008;2024-01-30T08:27:15;13.40;;;7.90;;
53497;SDS011;39382;47.168;16.008;2024-01-30T08:29:41;14.65;;;7.15;;
53497;SDS011;39382;47.168;16.008;2024-01-30T08:32:07;13.82;;;6.18;;
53497;SDS011;39382;47.168;16.008;2024-01-30T08:34:33;13.88;;;7.32;;
53497;SDS011;39382;47.168;16.008;2024-01-30T08:36:58;17.98;;;8.48;;
53497;SDS011;39382;47.168;16.008;2024-01-30T08:39:24;20.15;;;8.90;;
53497;SDS011;39382;47.168;16.008;2024-01-30T08:41:50;19.85;;;10.23;;
53497;SDS011;39382;47.168;16.008;2024-01-30T08:44:16;25.70;;;12.45;;
53497;SDS011;39382;47.168;16.008;2024-01-30T08:46:42;24.48;;;11.63;;
53497;SDS011;39382;47.168;16.008;2024-01-30T08:49:09;20.15;;;9.23;;
53497;SDS011;39382;47.168;16.008;2024-01-30T08:51:35;13.50;;;8.00;;
53497;SDS011;39382;47.168;16.008;2024-01-30T08:54:02;14.77;;;9.20;;
53497;SDS011;39382;47.168;16.008;2024-01-30T08:56:27;23.48;;;8.98;;
53497;SDS011;39382;47.168;16.008;2024-01-30T08:58:53;18.80;;;9.88;;
53497;SDS011;39382;47.168;16.008;2024-01-30T09:01:19;19.60;;;10.05;;
53497;SDS011;39382;47.168;16.008;2024-01-30T09:03:45;25.02;;;9.77;;
53497;SDS011;39382;47.168;16.008;2024-01-30T09:06:14;22.67;;;11.80;;
53497;SDS011;39382;47.168;16.008;2024-01-30T09:08:40;26.52;;;11.43;;
53497;SDS011;39382;47.168;16.008;2024-01-30T09:11:09;20.92;;;9.07;;
53497;SDS011;39382;47.168;16.008;2024-01-30T09:13:36;20.45;;;10.68;;
53497;SDS011;39382;47.168;16.008;2024-01-30T09:16:02;22.27;;;10.65;;
53497;SDS011;39382;47.168;16.008;2024-01-30T09:18:28;19.38;;;10.02;;
53497;SDS011;39382;47.168;16.008;2024-01-30T09:20:54;26.15;;;11.45;;
53497;SDS011;39382;47.168;16.008;2024-01-30T09:23:19;26.73;;;9.75;;
53497;SDS011;39382;47.168;16.008;2024-01-30T09:25:45;16.40;;;9.70;;
53497;SDS011;39382;47.168;16.008;2024-01-30T09:28:10;19.33;;;10.70;;
53497;SDS011;39382;47.168;16.008;2024-01-30T09:30:36;23.30;;;11.45;;
53497;SDS011;39382;47.168;16.008;2024-01-30T09:33:02;21.48;;;10.60;;
53497;SDS011;39382;47.168;16.008;2024-01-30T09:35:27;20.02;;;10.77;;
53497;SDS011;39382;47.168;16.008;2024-01-30T09:37:54;19.02;;;10.55;;
53497;SDS011;39382;47.168;16.008;2024-01-30T09:40:20;17.95;;;10.80;;
53497;SDS011;39382;47.168;16.008;2024-01-30T09:42:46;19.70;;;11.27;;
53497;SDS011;39382;47.168;16.008;2024-01-30T09:45:15;21.10;;;10.70;;
53497;SDS011;39382;47.168;16.008;2024-01-30T09:47:43;21.90;;;11.05;;
53497;SDS011;39382;47.168;16.008;2024-01-30T09:50:10;23.23;;;12.48;;
53497;SDS011;39382;47.168;16.008;2024-01-30T09:52:37;25.75;;;12.05;;
53497;SDS011;39382;47.168;16.008;2024-01-30T09:55:04;26.90;;;13.65;;
53497;SDS011;39382;47.168;16.008;2024-01-30T09:57:30;33.47;;;17.15;;
53497;SDS011;39382;47.168;16.008;2024-01-30T09:59:56;22.58;;;14.40;;
53497;SDS011;39382;47.168;16.008;2024-01-30T10:02:22;30.10;;;15.20;;
53497;SDS011;39382;47.168;16.008;2024-01-30T10:04:49;31.05;;;16.17;;
53497;SDS011;39382;47.168;16.008;2024-01-30T10:07:15;34.30;;;16.60;;
53497;SDS011;39382;47.168;16.008;2024-01-30T10:09:41;30.05;;;13.60;;
53497;SDS011;39382;47.168;16.008;2024-01-30T10:12:08;29.40;;;13.82;;
53497;SDS011;39382;47.168;16.008;2024-01-30T10:14:37;26.48;;;14.02;;
53497;SDS011;39382;47.168;16.008;2024-01-30T10:17:04;31.60;;;15.07;;
53497;SDS011;39382;47.168;16.008;2024-01-30T10:19:30;27.33;;;14.02;;
53497;SDS011;39382;47.168;16.008;2024-01-30T10:21:56;26.35;;;14.20;;
53497;SDS011;39382;47.168;16.008;2024-01-30T10:24:28;25.75;;;13.32;;
53497;SDS011;39382;47.168;16.008;2024-01-30T10:26:56;24.52;;;12.40;;
53497;SDS011;39382;47.168;16.008;2024-01-30T10:29:23;25.38;;;12.27;;
53497;SDS011;39382;47.168;16.008;2024-01-30T10:32:02;27.55;;;12.82;;
53497;SDS011;39382;47.168;16.008;2024-01-30T10:34:29;23.55;;;12.50;;
53497;SDS011;39382;47.168;16.008;2024-01-30T10:36:59;22.45;;;10.75;;
53497;SDS011;39382;47.168;16.008;2024-01-30T10:39:40;26.63;;;12.80;;
53497;SDS011;39382;47.168;16.008;2024-01-30T10:42:09;25.42;;;12.43;;
53497;SDS011;39382;47.168;16.008;2024-01-30T10:47:28;26.15;;;13.30;;
53497;SDS011;39382;47.168;16.008;2024-01-30T10:49:55;22.55;;;13.57;;
53497;SDS011;39382;47.168;16.008;2024-01-30T10:52:22;22.80;;;12.13;;
53497;SDS011;39382;47.168;16.008;2024-01-30T10:54:51;32.67;;;16.25;;
53497;SDS011;39382;47.168;16.008;2024-01-30T10:57:17;32.70;;;16.08;;
53497;SDS011;39382;47.168;16.008;2024-01-30T10:59:43;28.27;;;13.68;;
53497;SDS011;39382;47.168;16.008;2024-01-30T11:02:10;23.92;;;12.82;;
53497;SDS011;39382;47.168;16.008;2024-01-30T11:04:36;24.15;;;13.43;;
53497;SDS011;39382;47.168;16.008;2024-01-30T11:07:13;27.63;;;13.50;;
53497;SDS011;39382;47.168;16.008;2024-01-30T11:09:49;26.98;;;11.73;;
53497;SDS011;39382;47.168;16.008;2024-01-30T11:12:16;21.77;;;11.95;;
53497;SDS011;39382;47.168;16.008;2024-01-30T11:14:41;27.52;;;13.50;;
53497;SDS011;39382;47.168;16.008;2024-01-30T11:17:09;20.05;;;13.07;;
53497;SDS011;39382;47.168;16.008;2024-01-30T11:19:37;24.15;;;12.48;;
53497;SDS011;39382;47.168;16.008;2024-01-30T11:22:03;22.42;;;11.80;;
53497;SDS011;39382;47.168;16.008;2024-01-30T11:24:36;23.05;;;12.15;;
53497;SDS011;39382;47.168;16.008;2024-01-30T11:27:09;19.20;;;10.98;;
53497;SDS011;39382;47.168;16.008;2024-01-30T11:29:39;22.45;;;12.48;;
53497;SDS011;39382;47.168;16.008;2024-01-30T11:32:05;19.38;;;11.73;;
53497;SDS011;39382;47.168;16.008;2024-01-30T11:34:32;19.17;;;10.40;;
53497;SDS011;39382;47.168;16.008;2024-01-30T11:37:01;19.98;;;10.32;;
53497;SDS011;39382;47.168;16.008;2024-01-30T11:39:32;22.98;;;10.80;;
53497;SDS011;39382;47.168;16.008;2024-01-30T11:41:58;18.15;;;9.07;;
53497;SDS011;39382;47.168;16.008;2024-01-30T11:44:24;14.48;;;8.65;;
53497;SDS011;39382;47.168;16.008;2024-01-30T11:46:51;19.80;;;10.05;;
53497;SDS011;39382;47.168;16.008;2024-01-30T11:49:17;16.15;;;8.98;;
53497;SDS011;39382;47.168;16.008;2024-01-30T11:51:45;15.90;;;9.07;;
53497;SDS011;39382;47.168;16.008;2024-01-30T11:54:13;24.98;;;9.23;;
53497;SDS011;39382;47.168;16.008;2024-01-30T11:56:40;17.33;;;9.18;;
53497;SDS011;39382;47.168;16.008;2024-01-30T11:59:05;21.05;;;10.55;;
53497;SDS011;39382;47.168;16.008;2024-01-30T12:01:31;19.13;;;9.38;;
53497;SDS011;39382;47.168;16.008;2024-01-30T12:04:00;17.63;;;10.02;;
53497;SDS011;39382;47.168;16.008;2024-01-30T12:06:26;26.98;;;10.50;;
53497;SDS011;39382;47.168;16.008;2024-01-30T12:08:56;18.00;;;10.23;;
53497;SDS011;39382;47.168;16.008;2024-01-30T12:11:22;20.55;;;11.30;;
53497;SDS011;39382;47.168;16.008;2024-01-30T12:13:48;19.92;;;9.20;;
53497;SDS011;39382;47.168;16.008;2024-01-30T12:16:15;16.13;;;10.85;;
53497;SDS011;39382;47.168;16.008;2024-01-30T12:18:41;20.52;;;10.70;;
53497;SDS011;39382;47.168;16.008;2024-01-30T12:21:07;18.80;;;10.52;;
53497;SDS011;39382;47.168;16.008;2024-01-30T12:23:34;12.85;;;8.13;;
53497;SDS011;39382;47.168;16.008;2024-01-30T12:26:00;17.15;;;9.20;;
53497;SDS011;39382;47.168;16.008;2024-01-30T12:28:28;19.23;;;9.20;;
53497;SDS011;39382;47.168;16.008;2024-01-30T12:31:00;15.48;;;8.52;;
53497;SDS011;39382;47.168;16.008;2024-01-30T12:33:29;19.63;;;8.57;;
53497;SDS011;39382;47.168;16.008;2024-01-30T12:35:56;18.40;;;8.13;;
53497;SDS011;39382;47.168;16.008;2024-01-30T12:38:22;19.77;;;8.13;;
53497;SDS011;39382;47.168;16.008;2024-01-30T12:40:49;16.80;;;10.27;;
53497;SDS011;39382;47.168;16.008;2024-01-30T12:43:19;21.67;;;10.70;;
53497;SDS011;39382;47.168;16.008;2024-01-30T12:45:44;17.55;;;9.80;;
53497;SDS011;39382;47.168;16.008;2024-01-30T12:48:11;16.58;;;10.45;;
53497;SDS011;39382;47.168;16.008;2024-01-30T12:50:37;16.83;;;10.00;;
53497;SDS011;39382;47.168;16.008;2024-01-30T12:53:03;60.63;;;24.95;;
53497;SDS011;39382;47.168;16.008;2024-01-30T12:55:29;65.53;;;31.88;;
53497;SDS011;39382;47.168;16.008;2024-01-30T12:57:55;57.65;;;26.75;;
53497;SDS011;39382;47.168;16.008;2024-01-30T13:00:21;49.47;;;25.02;;
53497;SDS011;39382;47.168;16.008;2024-01-30T13:02:47;32.85;;;15.32;;
53497;SDS011;39382;47.168;16.008;2024-01-30T13:05:13;21.90;;;13.48;;
53497;SDS011;39382;47.168;16.008;2024-01-30T13:07:39;44.40;;;21.95;;
53497;SDS011;39382;47.168;16.008;2024-01-30T13:10:05;40.92;;;20.25;;
53497;SDS011;39382;47.168;16.008;2024-01-30T13:12:31;37.55;;;18.40;;
53497;SDS011;39382;47.168;16.008;2024-01-30T13:14:58;39.25;;;20.13;;
53497;SDS011;39382;47.168;16.008;2024-01-30T13:17:26;38.90;;;17.65;;
53497;SDS011;39382;47.168;16.008;2024-01-30T13:19:52;23.67;;;10.68;;
53497;SDS011;39382;47.168;16.008;2024-01-30T13:22:19;22.30;;;12.05;;
53497;SDS011;39382;47.168;16.008;2024-01-30T13:24:46;26.40;;;13.63;;
53497;SDS011;39382;47.168;16.008;2024-01-30T13:27:12;17.40;;;11.57;;
53497;SDS011;39382;47.168;16.008;2024-01-30T13:29:38;15.38;;;11.05;;
53497;SDS011;39382;47.168;16.008;2024-01-30T13:32:04;15.02;;;9.38;;
53497;SDS011;39382;47.168;16.008;2024-01-30T13:34:30;20.33;;;10.57;;
53497;SDS011;39382;47.168;16.008;2024-01-30T13:36:55;20.65;;;11.10;;
53497;SDS011;39382;47.168;16.008;2024-01-30T13:39:21;18.38;;;10.35;;
53497;SDS011;39382;47.168;16.008;2024-01-30T13:41:48;16.02;;;10.35;;
53497;SDS011;39382;47.168;16.008;2024-01-30T13:44:14;17.00;;;9.73;;
53497;SDS011;39382;47.168;16.008;2024-01-30T13:46:41;20.50;;;11.45;;
53497;SDS011;39382;47.168;16.008;2024-01-30T13:49:07;16.40;;;9.35;;
53497;SDS011;39382;47.168;16.008;2024-01-30T13:51:33;15.50;;;7.70;;
53497;SDS011;39382;47.168;16.008;2024-01-30T13:53:58;19.58;;;9.30;;
53497;SDS011;39382;47.168;16.008;2024-01-30T13:56:24;11.55;;;7.57;;
53497;SDS011;39382;47.168;16.008;2024-01-30T13:58:51;15.82;;;7.10;;
53497;SDS011;39382;47.168;16.008;2024-01-30T14:01:17;13.95;;;8.25;;
53497;SDS011;39382;47.168;16.008;2024-01-30T14:03:43;13.85;;;8.38;;
53497;SDS011;39382;47.168;16.008;2024-01-30T14:06:09;12.18;;;7.65;;
53497;SDS011;39382;47.168;16.008;2024-01-30T14:08:36;13.98;;;7.53;;
53497;SDS011;39382;47.168;16.008;2024-01-30T14:11:02;18.90;;;9.52;;
53497;SDS011;39382;47.168;16.008;2024-01-30T14:13:28;19.75;;;10.45;;
53497;SDS011;39382;47.168;16.008;2024-01-30T14:15:55;20.25;;;10.52;;
53497;SDS011;39382;47.168;16.008;2024-01-30T14:18:21;23.58;;;14.43;;
53497;SDS011;39382;47.168;16.008;2024-01-30T14:20:47;17.20;;;12.00;;
53497;SDS011;39382;47.168;16.008;2024-01-30T14:23:12;17.80;;;9.48;;